createdAt,value
2019-05-29T00:00:25.670Z,9.60
2019-05-29T00:02:55.782Z,9.60
2019-05-29T00:05:25.403Z,9.60
2019-05-29T01:06:37.950Z,9.00
2019-05-29T01:09:08.629Z,9.00
2019-05-29T01:11:38.263Z,9.00
2019-05-29T01:14:11.039Z,9.00
2019-05-29T01:16:40.619Z,9.00
2019-05-29T01:19:25.654Z,8.90
2019-05-29T01:21:56.088Z,8.90
2019-05-29T01:24:26.172Z,8.90
2019-05-29T01:26:55.701Z,8.90
2019-05-29T01:29:25.045Z,8.80
2019-05-29T01:31:54.503Z,8.80
2019-05-29T01:34:24.088Z,8.80
2019-05-29T01:36:54.128Z,8.80
2019-05-29T01:39:23.645Z,8.80
2019-05-29T01:41:52.954Z,8.70
2019-05-29T01:44:23.705Z,8.70
2019-05-29T01:46:53.761Z,8.70
2019-05-29T01:49:23.870Z,8.70
2019-05-29T01:51:53.406Z,8.60
2019-05-29T01:54:23.722Z,8.60
2019-05-29T01:56:53.152Z,8.60
2019-05-29T01:59:23.851Z,8.60
2019-05-29T02:01:53.589Z,8.60
2019-05-29T02:04:24.191Z,8.50
2019-05-29T02:06:53.642Z,8.50
2019-05-29T02:09:24.260Z,8.50
2019-05-29T02:11:56.175Z,8.50
2019-05-29T02:14:26.893Z,8.50
2019-05-29T02:16:56.207Z,8.40
2019-05-29T02:19:25.528Z,8.40
2019-05-29T02:21:54.895Z,8.40
2019-05-29T02:24:25.440Z,8.40
2019-05-29T02:26:55.313Z,8.30
2019-05-29T02:29:25.119Z,8.40
2019-05-29T02:31:54.394Z,8.30
2019-05-29T02:34:25.549Z,8.30
2019-05-29T02:36:55.034Z,8.30
2019-05-29T02:39:25.696Z,8.30
2019-05-29T02:41:55.519Z,8.20
2019-05-29T02:44:25.534Z,8.20
2019-05-29T02:46:55.292Z,8.20
2019-05-29T02:49:25.778Z,8.20
2019-05-29T02:51:55.615Z,8.20
2019-05-29T02:54:27.010Z,8.10
2019-05-29T02:56:56.174Z,8.10
2019-05-29T02:59:36.514Z,8.10
2019-05-29T03:02:05.327Z,8.10
2019-05-29T03:04:34.956Z,8.10
2019-05-29T03:07:04.487Z,8.00
2019-05-29T03:09:34.014Z,8.00
2019-05-29T03:12:03.501Z,8.00
2019-05-29T03:14:34.692Z,8.00
2019-05-29T03:17:06.194Z,8.00
2019-05-29T03:19:35.393Z,8.00
2019-05-29T03:22:04.887Z,8.00
2019-05-29T03:24:35.225Z,7.90
2019-05-29T03:27:05.571Z,7.90
2019-05-29T03:29:35.107Z,7.90
2019-05-29T03:32:04.649Z,7.90
2019-05-29T03:34:39.557Z,7.90
2019-05-29T03:37:05.638Z,7.90
2019-05-29T03:39:35.066Z,7.90
2019-05-29T03:42:04.967Z,7.90
2019-05-29T03:44:35.452Z,7.80
2019-05-29T03:47:05.600Z,7.80
2019-05-29T03:49:35.330Z,7.90
2019-05-29T03:52:07.781Z,7.80
2019-05-29T03:54:38.565Z,7.80
2019-05-29T03:57:08.229Z,7.80
2019-05-29T03:59:37.746Z,7.80
2019-05-29T04:02:06.991Z,7.80
2019-05-29T04:04:38.280Z,7.80
2019-05-29T04:07:07.954Z,7.80
2019-05-29T04:09:37.791Z,7.90
2019-05-29T04:12:07.243Z,7.90
2019-05-29T04:14:37.860Z,7.90
2019-05-29T04:17:07.956Z,7.90
2019-05-29T04:19:38.714Z,9.10
2019-05-29T04:22:10.877Z,7.90
2019-05-29T04:24:41.529Z,7.90
2019-05-29T04:27:13.483Z,7.90
2019-05-29T04:29:43.715Z,7.90
2019-05-29T04:32:13.345Z,7.90
2019-05-29T04:34:42.948Z,7.90
2019-05-29T04:37:12.584Z,7.90
2019-05-29T04:39:43.279Z,8.00
2019-05-29T04:42:12.790Z,8.00
2019-05-29T04:44:42.355Z,8.00
2019-05-29T04:47:12.856Z,8.00
2019-05-29T04:49:42.208Z,8.00
2019-05-29T04:52:11.500Z,8.10
2019-05-29T04:54:41.533Z,8.10
2019-05-29T04:57:11.126Z,8.10
2019-05-29T04:59:40.394Z,8.20
2019-05-29T05:02:09.786Z,8.20
2019-05-29T05:04:39.391Z,8.20
2019-05-29T05:07:09.066Z,8.30
2019-05-29T05:09:39.609Z,8.30
2019-05-29T05:12:09.005Z,8.30
2019-05-29T05:14:38.355Z,8.40
2019-05-29T05:17:07.719Z,8.40
2019-05-29T05:19:38.113Z,8.40
2019-05-29T05:22:07.840Z,8.50
2019-05-29T05:24:40.937Z,8.50
2019-05-29T05:27:08.742Z,8.50
2019-05-29T05:29:38.493Z,8.50
2019-05-29T05:32:07.935Z,8.60
2019-05-29T05:34:38.778Z,8.60
2019-05-29T05:37:08.764Z,8.70
2019-05-29T05:39:39.062Z,8.70
2019-05-29T05:42:08.524Z,8.70
2019-05-29T05:44:39.085Z,8.70
2019-05-29T05:47:09.281Z,8.80
2019-05-29T05:49:39.514Z,8.80
2019-05-29T05:52:08.966Z,8.90
2019-05-29T05:54:39.560Z,8.90
2019-05-29T05:57:09.128Z,9.00
2019-05-29T05:59:41.946Z,9.00
2019-05-29T06:02:13.102Z,9.10
2019-05-29T06:04:42.423Z,9.10
2019-05-29T06:07:11.989Z,9.20
2019-05-29T06:09:42.504Z,9.30
2019-05-29T06:12:12.045Z,9.40
2019-05-29T06:14:42.742Z,9.50
2019-05-29T06:17:12.664Z,9.60
2019-05-29T06:19:43.110Z,9.70
2019-05-29T06:22:12.842Z,9.80
2019-05-29T06:24:43.370Z,9.80
2019-05-29T06:27:13.174Z,9.90
2019-05-29T06:29:43.560Z,9.90
2019-05-29T06:32:13.024Z,10.00
2019-05-29T06:34:43.837Z,10.00
2019-05-29T06:37:13.184Z,10.70
2019-05-29T06:39:43.886Z,10.10
2019-05-29T06:42:13.305Z,10.20
2019-05-29T06:44:44.929Z,10.30
2019-05-29T06:47:13.898Z,10.30
2019-05-29T06:49:44.344Z,10.40
2019-05-29T06:52:14.005Z,10.40
2019-05-29T06:54:44.119Z,10.50
2019-05-29T06:57:13.542Z,10.50
2019-05-29T06:59:42.826Z,10.60
2019-05-29T07:02:12.509Z,10.70
2019-05-29T07:04:42.526Z,10.70
2019-05-29T07:07:11.990Z,10.80
2019-05-29T07:09:43.623Z,10.80
2019-05-29T07:12:13.187Z,10.90
2019-05-29T07:14:42.692Z,11.00
2019-05-29T07:17:12.251Z,11.00
2019-05-29T07:19:56.649Z,11.10
2019-05-29T07:22:12.736Z,11.10
2019-05-29T07:24:43.467Z,11.20
2019-05-29T07:27:13.689Z,11.20
2019-05-29T07:29:43.560Z,11.30
2019-05-29T07:32:13.033Z,11.30
2019-05-29T07:34:58.145Z,11.40
2019-05-29T07:37:13.630Z,11.50
2019-05-29T07:39:43.689Z,11.50
2019-05-29T07:42:13.538Z,11.50
2019-05-29T07:44:44.037Z,11.50
2019-05-29T07:47:13.648Z,11.60
2019-05-29T07:49:45.832Z,11.70
2019-05-29T07:52:14.530Z,11.80
2019-05-29T07:54:44.016Z,11.80
2019-05-29T07:57:13.773Z,11.90
2019-05-29T07:59:43.319Z,12.00
2019-05-29T08:02:12.747Z,12.10
2019-05-29T08:04:43.015Z,12.10
2019-05-29T08:07:12.683Z,12.20
2019-05-29T08:09:43.532Z,12.20
2019-05-29T08:12:13.545Z,12.30
2019-05-29T08:14:43.757Z,12.40
2019-05-29T08:17:13.622Z,12.40
2019-05-29T08:19:59.210Z,12.50
2019-05-29T08:22:14.174Z,12.50
2019-05-29T08:24:45.856Z,12.50
2019-05-29T08:27:14.882Z,12.60
2019-05-29T08:29:44.768Z,12.70
2019-05-29T08:32:14.350Z,12.80
2019-05-29T08:34:45.033Z,12.80
2019-05-29T08:37:14.615Z,12.80
2019-05-29T08:39:43.892Z,12.90
2019-05-29T08:42:28.998Z,13.00
2019-05-29T08:44:45.421Z,13.10
2019-05-29T08:47:14.859Z,13.20
2019-05-29T08:49:48.032Z,13.20
2019-05-29T08:52:15.255Z,13.30
2019-05-29T08:54:44.595Z,13.30
2019-05-29T08:57:13.975Z,13.40
2019-05-29T08:59:44.321Z,13.40
2019-05-29T09:02:14.107Z,13.50
2019-05-29T09:04:44.584Z,13.90
2019-05-29T09:07:14.153Z,14.50
2019-05-29T09:09:44.847Z,15.10
2019-05-29T09:12:14.562Z,15.80
2019-05-29T09:14:44.530Z,16.40
2019-05-29T09:17:14.602Z,17.00
2019-05-29T09:19:44.036Z,17.70
2019-05-29T09:22:13.870Z,18.30
2019-05-29T09:24:44.145Z,18.80
2019-05-29T09:27:14.560Z,19.10
2019-05-29T09:29:44.903Z,19.70
2019-05-29T09:32:15.365Z,20.20
2019-05-29T09:34:47.594Z,20.60
2019-05-29T09:37:17.326Z,21.40
2019-05-29T09:39:47.655Z,22.00
2019-05-29T09:42:20.003Z,22.30
2019-05-29T09:44:48.946Z,22.40
2019-05-29T09:47:19.008Z,22.90
2019-05-29T09:49:49.342Z,23.50
2019-05-29T09:52:18.711Z,24.00
2019-05-29T09:54:48.096Z,23.80
2019-05-29T09:57:18.005Z,23.60
2019-05-29T09:59:48.875Z,24.20
2019-05-29T10:02:18.282Z,24.70
2019-05-29T10:04:47.954Z,25.00
2019-05-29T10:07:17.519Z,25.10
2019-05-29T10:09:47.447Z,25.80
2019-05-29T10:12:17.240Z,26.00
2019-05-29T10:14:46.768Z,26.20
2019-05-29T10:17:16.184Z,26.30
2019-05-29T10:19:45.540Z,26.60
2019-05-29T10:22:15.338Z,26.90
2019-05-29T10:24:45.020Z,27.20
2019-05-29T10:27:14.437Z,27.50
2019-05-29T10:29:44.586Z,27.80
2019-05-29T10:32:15.015Z,26.80
2019-05-29T10:34:44.620Z,26.80
2019-05-29T10:37:17.817Z,26.90
2019-05-29T10:39:48.947Z,26.90
2019-05-29T10:42:20.715Z,26.80
2019-05-29T10:44:49.687Z,27.10
2019-05-29T10:47:20.038Z,26.90
2019-05-29T10:49:49.744Z,26.90
2019-05-29T10:52:19.355Z,27.30
2019-05-29T10:54:50.156Z,28.20
2019-05-29T10:57:19.596Z,26.70
2019-05-29T10:59:48.907Z,26.20
2019-05-29T11:02:18.437Z,26.40
2019-05-29T11:04:52.913Z,26.70
2019-05-29T11:07:19.374Z,27.10
2019-05-29T11:09:50.089Z,27.30
2019-05-29T11:12:19.677Z,27.60
2019-05-29T11:14:49.065Z,27.30
2019-05-29T11:17:18.904Z,26.60
2019-05-29T11:19:49.205Z,26.90
2019-05-29T11:22:26.368Z,26.80
2019-05-29T11:24:50.045Z,26.20
2019-05-29T11:27:19.414Z,26.00
2019-05-29T11:29:50.449Z,25.50
2019-05-29T11:32:19.916Z,25.30
2019-05-29T11:34:52.331Z,25.10
2019-05-29T11:37:21.423Z,24.80
2019-05-29T11:39:52.408Z,24.40
2019-05-29T11:42:27.641Z,24.80
2019-05-29T11:44:53.573Z,24.70
2019-05-29T11:47:23.521Z,24.40
2019-05-29T11:49:53.193Z,24.20
2019-05-29T11:52:24.977Z,23.90
2019-05-29T11:54:58.916Z,23.40
2019-05-29T11:57:25.433Z,23.20
2019-05-29T11:59:59.689Z,23.10
2019-05-29T12:02:27.320Z,23.40
2019-05-29T12:04:57.463Z,22.20
2019-05-29T12:07:28.318Z,22.10
2019-05-29T12:09:58.047Z,21.60
2019-05-29T12:12:27.450Z,21.60
2019-05-29T12:15:06.153Z,21.30
2019-05-29T12:17:28.765Z,21.00
2019-05-29T12:19:59.818Z,21.00
2019-05-29T12:22:29.326Z,20.90
2019-05-29T12:24:58.791Z,20.90
2019-05-29T12:27:28.171Z,20.70
2019-05-29T12:29:58.728Z,20.50
2019-05-29T12:32:29.827Z,20.50
2019-05-29T12:34:59.716Z,20.40
2019-05-29T12:37:29.585Z,20.10
2019-05-29T12:39:59.983Z,20.10
2019-05-29T12:42:29.385Z,20.40
2019-05-29T12:45:18.627Z,20.20
2019-05-29T12:47:48.562Z,20.10
2019-05-29T12:50:18.428Z,20.30
2019-05-29T12:52:47.819Z,20.10
2019-05-29T12:55:17.898Z,20.20
2019-05-29T12:57:47.285Z,20.10
2019-05-29T13:00:17.560Z,20.10
2019-05-29T13:02:47.074Z,20.20
2019-05-29T13:05:20.480Z,20.20
2019-05-29T13:07:48.811Z,20.30
2019-05-29T13:10:29.848Z,20.40
2019-05-29T13:12:50.020Z,20.30
2019-05-29T13:15:20.134Z,20.00
2019-05-29T13:17:49.492Z,20.30
2019-05-29T13:20:22.170Z,20.30
2019-05-29T13:22:50.198Z,20.40
2019-05-29T13:25:20.064Z,20.40
2019-05-29T13:27:49.558Z,20.40
2019-05-29T13:30:19.842Z,20.10
2019-05-29T13:32:49.266Z,20.20
2019-05-29T13:35:22.322Z,20.20
2019-05-29T13:37:51.781Z,20.00
2019-05-29T13:40:22.219Z,20.00
2019-05-29T13:42:51.974Z,20.00
2019-05-29T13:45:21.695Z,20.10
2019-05-29T13:47:51.065Z,20.10
2019-05-29T13:50:21.064Z,20.00
2019-05-29T13:52:50.438Z,20.10
2019-05-29T13:55:20.157Z,20.20
2019-05-29T13:57:49.819Z,20.10
2019-05-29T14:00:33.016Z,20.10
2019-05-29T14:02:50.849Z,20.20
2019-05-29T14:05:20.638Z,20.20
2019-05-29T14:07:58.530Z,20.20
2019-05-29T14:10:28.180Z,20.10
2019-05-29T14:12:58.822Z,20.20
2019-05-29T14:15:28.225Z,20.10
2019-05-29T14:17:57.566Z,20.20
2019-05-29T14:20:27.371Z,20.20
2019-05-29T14:22:56.672Z,20.20
2019-05-29T14:25:26.287Z,20.10
2019-05-29T14:27:56.087Z,20.10
2019-05-29T14:30:27.850Z,20.10
2019-05-29T14:32:57.417Z,20.10
2019-05-29T14:35:26.903Z,20.10
2019-05-29T14:37:56.345Z,20.00
2019-05-29T14:40:26.054Z,20.10
2019-05-29T14:42:56.483Z,20.00
2019-05-29T14:45:28.602Z,20.00
2019-05-29T14:47:58.266Z,19.90
2019-05-29T14:50:27.679Z,19.90
2019-05-29T14:52:57.050Z,19.80
2019-05-29T14:55:26.687Z,19.60
2019-05-29T14:57:56.218Z,19.60
2019-05-29T15:00:26.019Z,19.60
2019-05-29T15:02:55.420Z,19.60
2019-05-29T15:05:26.050Z,19.50
2019-05-29T15:07:55.429Z,19.40
2019-05-29T15:10:27.699Z,19.50
2019-05-29T15:12:58.246Z,19.60
2019-05-29T15:15:28.099Z,19.70
2019-05-29T15:17:57.564Z,19.80
2019-05-29T15:20:26.953Z,19.70
2019-05-29T15:22:59.665Z,19.80
2019-05-29T15:25:29.268Z,19.70
2019-05-29T15:28:08.221Z,19.60
2019-05-29T15:30:48.302Z,19.60
2019-05-29T15:33:18.283Z,19.60
2019-05-29T15:35:59.797Z,19.70
2019-05-29T15:38:32.318Z,19.70
2019-05-29T15:41:04.301Z,19.60
2019-05-29T15:43:33.797Z,19.40
2019-05-29T15:46:03.755Z,19.40
2019-05-29T15:48:33.863Z,19.50
2019-05-29T15:51:03.280Z,19.60
2019-05-29T15:53:32.755Z,19.50
2019-05-29T15:56:16.951Z,19.50
2019-05-29T15:58:34.805Z,19.30
2019-05-29T16:01:04.375Z,19.20
2019-05-29T16:03:34.109Z,19.20
2019-05-29T16:06:03.591Z,19.30
2019-05-29T16:08:35.841Z,19.30
2019-05-29T16:11:08.573Z,19.30
2019-05-29T16:13:38.036Z,19.30
2019-05-29T16:16:09.325Z,19.30
2019-05-29T16:18:38.696Z,19.20
2019-05-29T16:21:10.454Z,19.20
2019-05-29T16:23:40.216Z,19.30
2019-05-29T16:26:10.927Z,19.30
2019-05-29T16:28:43.718Z,19.20
2019-05-29T16:31:14.754Z,19.00
2019-05-29T16:33:44.276Z,19.00
2019-05-29T16:36:14.562Z,18.90
2019-05-29T16:38:44.200Z,18.90
2019-05-29T16:41:13.753Z,18.80
2019-05-29T16:43:43.105Z,18.80
2019-05-29T16:46:15.992Z,18.70
2019-05-29T16:48:44.923Z,18.60
2019-05-29T16:51:14.794Z,18.60
2019-05-29T16:53:44.607Z,18.60
2019-05-29T16:56:14.774Z,18.60
2019-05-29T16:58:44.185Z,18.50
2019-05-29T17:01:13.826Z,18.50
2019-05-29T17:03:43.934Z,18.40
2019-05-29T17:06:13.702Z,18.30
2019-05-29T17:08:43.127Z,18.30
2019-05-29T17:11:12.555Z,18.30
2019-05-29T17:13:42.043Z,18.20
2019-05-29T17:16:11.376Z,18.20
2019-05-29T17:18:42.759Z,18.20
2019-05-29T17:21:14.970Z,18.20
2019-05-29T17:23:44.545Z,18.20
2019-05-29T17:26:14.677Z,18.30
2019-05-29T17:28:44.460Z,18.30
2019-05-29T17:31:14.963Z,18.30
2019-05-29T17:33:44.611Z,18.20
2019-05-29T17:36:14.876Z,18.20
2019-05-29T17:38:44.587Z,18.10
2019-05-29T17:41:15.268Z,18.00
2019-05-29T17:43:44.704Z,17.90
2019-05-29T17:46:15.323Z,17.80
2019-05-29T17:48:44.610Z,17.80
2019-05-29T17:51:15.392Z,17.70
2019-05-29T17:54:10.476Z,17.60
2019-05-29T17:56:31.736Z,17.60
2019-05-29T17:58:57.609Z,17.40
2019-05-29T18:01:30.802Z,17.50
2019-05-29T18:04:01.660Z,17.40
2019-05-29T18:06:31.119Z,17.40
2019-05-29T18:09:00.655Z,17.40
2019-05-29T18:11:34.095Z,17.40
2019-05-29T18:14:17.378Z,17.30
2019-05-29T18:16:49.919Z,17.20
2019-05-29T18:19:28.201Z,17.20
2019-05-29T18:21:58.162Z,17.00
2019-05-29T18:24:29.888Z,17.10
2019-05-29T18:27:04.455Z,17.10
2019-05-29T18:29:34.276Z,17.00
2019-05-29T18:32:03.655Z,17.00
2019-05-29T18:34:32.959Z,17.00
2019-05-29T18:37:04.123Z,16.90
2019-05-29T18:39:35.240Z,16.80
2019-05-29T18:42:11.219Z,16.70
2019-05-29T18:44:41.597Z,16.60
2019-05-29T18:47:11.779Z,16.50
2019-05-29T18:49:41.309Z,16.40
2019-05-29T18:52:10.802Z,16.50
2019-05-29T18:54:40.458Z,16.40
2019-05-29T18:57:15.563Z,16.40
2019-05-29T18:59:43.736Z,16.40
2019-05-29T19:02:17.889Z,16.40
2019-05-29T19:04:47.511Z,16.30
2019-05-29T19:07:16.830Z,16.20
2019-05-29T19:09:46.202Z,16.20
2019-05-29T19:12:15.901Z,16.00
2019-05-29T19:14:45.503Z,16.00
2019-05-29T19:17:15.077Z,16.10
2019-05-29T19:19:47.858Z,16.00
2019-05-29T19:22:24.414Z,16.00
2019-05-29T19:24:54.067Z,15.90
2019-05-29T19:27:34.101Z,15.90
2019-05-29T19:29:57.681Z,15.80
2019-05-29T19:32:27.449Z,15.80
2019-05-29T19:34:56.847Z,15.70
2019-05-29T19:37:26.282Z,15.70
2019-05-29T19:39:56.023Z,15.70
2019-05-29T19:42:26.116Z,15.60
2019-05-29T19:44:55.638Z,15.60
2019-05-29T19:47:24.930Z,15.60
2019-05-29T19:49:54.606Z,15.60
2019-05-29T19:52:25.036Z,15.50
2019-05-29T19:54:54.553Z,15.50
2019-05-29T19:57:23.845Z,15.50
2019-05-29T19:59:53.141Z,15.40
2019-05-29T20:02:22.348Z,15.50
2019-05-29T20:04:51.986Z,15.40
2019-05-29T20:07:21.342Z,15.40
2019-05-29T20:09:50.771Z,15.30
2019-05-29T20:12:20.071Z,15.20
2019-05-29T20:14:49.366Z,15.20
2019-05-29T20:17:18.604Z,15.10
2019-05-29T20:19:47.965Z,15.10
2019-05-29T20:22:17.262Z,15.10
2019-05-29T20:24:46.862Z,15.10
2019-05-29T20:27:16.354Z,15.10
2019-05-29T20:29:45.625Z,15.00
2019-05-29T20:32:14.974Z,15.00
2019-05-29T20:34:44.324Z,14.90
2019-05-29T20:37:14.080Z,14.90
2019-05-29T20:39:43.438Z,14.90
2019-05-29T20:42:12.728Z,14.80
2019-05-29T20:44:43.040Z,14.90
2019-05-29T20:47:12.608Z,14.90
2019-05-29T20:49:42.311Z,14.80
2019-05-29T20:52:11.833Z,14.90
2019-05-29T20:54:41.818Z,14.80
2019-05-29T20:57:11.594Z,14.80
2019-05-29T20:59:43.782Z,14.80
2019-05-29T21:02:13.586Z,14.80
2019-05-29T21:04:43.138Z,14.80
2019-05-29T21:07:12.441Z,14.80
2019-05-29T21:09:43.292Z,14.80
2019-05-29T21:12:13.585Z,14.80
2019-05-29T21:14:44.606Z,14.80
2019-05-29T21:17:14.308Z,14.70
2019-05-29T21:19:44.691Z,14.80
2019-05-29T21:22:14.151Z,14.70
2019-05-29T21:24:52.606Z,14.70
2019-05-29T21:27:15.063Z,14.70
2019-05-29T21:29:45.560Z,14.70
2019-05-29T21:32:15.692Z,14.70
2019-05-29T21:34:46.219Z,14.70
2019-05-29T21:37:18.229Z,14.70
2019-05-29T21:39:47.701Z,14.70
2019-05-29T21:42:17.455Z,14.60
2019-05-29T21:44:47.702Z,14.60
2019-05-29T21:47:17.473Z,14.60
2019-05-29T21:49:47.543Z,14.60
2019-05-29T21:52:20.122Z,14.70
2019-05-29T21:54:49.674Z,14.60
2019-05-29T21:57:18.931Z,14.60
2019-05-29T21:59:48.616Z,14.60
2019-05-29T22:02:18.154Z,14.60
2019-05-29T22:04:48.667Z,14.60
2019-05-29T22:07:18.285Z,14.60
2019-05-29T22:09:52.091Z,14.60
2019-05-29T22:12:21.798Z,14.60
2019-05-29T22:14:51.685Z,14.60
2019-05-29T22:17:22.143Z,14.60
2019-05-29T22:19:51.449Z,14.60
2019-05-29T22:22:23.130Z,14.60
2019-05-29T22:24:53.101Z,14.50
2019-05-29T22:27:22.691Z,14.50
2019-05-29T22:29:53.467Z,14.50
2019-05-29T22:32:22.856Z,14.50
2019-05-29T22:34:53.585Z,14.50
2019-05-29T22:37:26.279Z,14.50
2019-05-29T22:39:55.788Z,14.50
2019-05-29T22:42:25.322Z,14.50
2019-05-29T22:44:55.649Z,14.50
2019-05-29T22:47:35.030Z,14.50
2019-05-29T22:50:01.859Z,14.50
2019-05-29T22:52:31.593Z,14.50
2019-05-29T22:55:02.352Z,14.50
2019-05-29T22:57:32.236Z,14.50
2019-05-29T23:00:02.488Z,14.50
2019-05-29T23:02:32.169Z,14.50
2019-05-29T23:05:03.650Z,14.50
2019-05-29T23:07:32.985Z,14.50
2019-05-29T23:10:03.095Z,14.50
2019-05-29T23:12:32.473Z,14.50
2019-05-29T23:15:02.971Z,14.50
2019-05-29T23:17:32.634Z,14.50
2019-05-29T23:20:04.128Z,14.40
2019-05-29T23:22:33.332Z,14.40
2019-05-29T23:25:03.301Z,14.40
2019-05-29T23:27:33.041Z,14.40
2019-05-29T23:30:03.389Z,14.40
2019-05-29T23:32:32.797Z,14.40
2019-05-29T23:35:03.421Z,14.40
2019-05-29T23:37:33.034Z,14.40
2019-05-29T23:40:05.425Z,14.30
2019-05-29T23:42:35.198Z,14.40
2019-05-29T23:45:04.795Z,14.30
2019-05-29T23:47:34.088Z,14.30
2019-05-29T23:50:04.499Z,14.30
2019-05-29T23:52:34.144Z,14.20
2019-05-29T23:55:04.092Z,14.20
2019-05-29T23:57:33.808Z,14.20
